Time;durP1;ratioP1;P1;durP2;ratioP2;P2;SDS_P1;SDS_P2;PMS_P1;PMS_P2;Temp;Humidity;BMP_temperature;BMP_pressure;BME280_temperature;BME280_humidity;BME280_pressure;Samples;Min_cycle;Max_cycle;Signal;HPM_P1;HPM_P2
2022/07/15 00:00:33;;;;;;;6.30;2.05;;;;;;;-148.88;86.85;75974.25;5103883;28;20034;-84
2022/07/15 00:02:59;;;;;;;5.45;2.22;;;;;;;-148.88;86.15;75980.34;5104159;28;20111;-83
2022/07/15 00:05:25;;;;;;;10.60;2.53;;;;;;;-148.88;86.16;75988.47;5103802;28;20019;-84
2022/07/15 00:07:50;;;;;;;6.65;2.25;;;;;;;-148.88;86.67;75998.63;5106178;28;20045;-85
2022/07/15 00:10:20;;;;;;;4.90;2.38;;;;;;;-148.88;86.94;76000.66;5106824;28;20020;-84
2022/07/15 00:12:57;;;;;;;5.63;2.53;;;;;;;-148.88;86.84;76000.66;5105036;28;20019;-84
2022/07/15 00:15:25;;;;;;;4.15;2.28;;;;;;;-148.88;86.57;76000.66;5104377;28;20103;-85
2022/07/15 00:17:51;;;;;;;4.40;2.30;;;;;;;-148.88;86.57;76004.72;5103407;28;20047;-83
2022/07/15 00:20:17;;;;;;;6.07;2.58;;;;;;;-148.88;87.28;76008.78;5121584;28;20058;-84
2022/07/15 00:22:43;;;;;;;10.90;2.88;;;;;;;-148.88;87.23;76004.72;5104144;28;20024;-84
2022/07/15 00:25:10;;;;;;;6.40;2.30;;;;;;;-148.88;87.62;76004.72;5122323;28;20102;-84
2022/07/15 00:27:36;;;;;;;7.97;2.45;;;;;;;-148.88;87.64;76000.66;5105754;28;20024;-84
2022/07/15 00:30:03;;;;;;;5.97;2.63;;;;;;;-148.88;87.48;75996.59;5123465;28;20077;-83
2022/07/15 00:32:29;;;;;;;6.47;2.20;;;;;;;-148.88;87.57;76000.66;5105832;28;20082;-84
2022/07/15 00:34:54;;;;;;;6.57;2.45;;;;;;;-148.88;88.03;76012.84;5104153;28;20042;-85
2022/07/15 00:37:20;;;;;;;9.60;2.45;;;;;;;-148.88;89.11;76016.91;5122363;28;20039;-84
2022/07/15 00:39:46;;;;;;;4.57;2.25;;;;;;;-148.88;89.19;76010.81;5105286;28;20023;-84
2022/07/15 00:42:43;;;;;;;5.85;2.70;;;;;;;-148.88;89.73;76037.22;5104210;28;20016;-84
2022/07/15 00:44:58;;;;;;;8.50;2.58;;;;;;;-148.88;90.07;76035.19;5121967;28;20035;-84
2022/07/15 00:47:23;;;;;;;7.30;3.00;;;;;;;-148.88;90.97;76053.47;5104201;28;20107;-84
2022/07/15 00:49:49;;;;;;;8.60;2.67;;;;;;;-148.88;90.58;76037.22;5107843;28;20034;-84
2022/07/15 00:52:15;;;;;;;7.30;2.65;;;;;;;-148.88;90.90;76033.16;5105851;28;20019;-84
2022/07/15 00:54:42;;;;;;;5.97;3.10;;;;;;;-148.88;91.43;76045.34;5124116;28;20385;-85
2022/07/15 00:57:07;;;;;;;8.20;2.75;;;;;;;-148.88;90.75;76045.34;5118773;28;20023;-84
2022/07/15 00:59:34;;;;;;;5.63;2.40;;;;;;;-148.88;90.34;76039.25;5118347;28;20435;-84
2022/07/15 01:01:59;;;;;;;6.10;2.85;;;;;;;-148.88;90.60;76053.47;5101357;28;20031;-84
2022/07/15 01:04:27;;;;;;;5.05;2.78;;;;;;;-148.88;90.83;76063.63;5100709;28;20031;-84
2022/07/15 01:06:55;;;;;;;7.35;2.80;;;;;;;-148.88;91.70;76063.63;5101402;28;20030;-84
2022/07/15 01:09:21;;;;;;;6.95;2.50;;;;;;;-148.88;90.69;76049.41;5121774;28;20024;-84
2022/07/15 01:11:47;;;;;;;7.65;3.03;;;;;;;-148.88;90.09;76051.44;5103790;28;20019;-84
2022/07/15 01:14:12;;;;;;;6.40;2.88;;;;;;;-148.88;89.81;76057.53;5120494;28;20092;-84
2022/07/15 01:16:38;;;;;;;6.15;2.67;;;;;;;-148.88;89.56;76057.53;5102957;28;20023;-84
2022/07/15 01:19:04;;;;;;;8.77;3.25;;;;;;;-148.88;89.25;76057.53;5120937;28;20031;-84
2022/07/15 01:21:29;;;;;;;5.20;2.58;;;;;;;-148.88;89.28;76065.66;5102945;28;20031;-85
2022/07/15 01:23:55;;;;;;;5.80;2.72;;;;;;;-148.88;89.99;76063.63;5120838;28;20020;-83
2022/07/15 01:26:20;;;;;;;8.50;2.75;;;;;;;-148.88;89.61;76069.72;5121250;28;20497;-84
2022/07/15 01:28:45;;;;;;;6.72;2.75;;;;;;;-148.88;89.33;76073.78;5121188;28;20027;-84
2022/07/15 01:31:11;;;;;;;6.07;2.90;;;;;;;-148.88;89.43;76067.69;5108734;28;20019;-84
2022/07/15 01:33:38;;;;;;;6.15;2.70;;;;;;;-148.88;89.07;76088.00;5133469;28;20054;-85
2022/07/15 01:36:03;;;;;;;9.88;3.22;;;;;;;-148.88;90.65;76092.06;5130017;28;20478;-85
2022/07/15 01:38:29;;;;;;;8.57;3.20;;;;;;;-148.88;90.59;76102.22;5112771;28;20026;-84
2022/07/15 01:40:55;;;;;;;6.15;3.15;;;;;;;-148.88;91.00;76110.34;5113565;28;20035;-84
2022/07/15 01:43:21;;;;;;;5.95;2.88;;;;;;;-148.88;91.29;76094.09;5114694;28;20026;-84
2022/07/15 01:45:46;;;;;;;8.15;3.00;;;;;;;-148.88;90.87;76110.34;5113157;28;20024;-84
2022/07/15 01:50:59;;;;;;;6.80;3.35;;;;;;;-148.88;92.02;76126.59;5132304;28;20022;-84
2022/07/15 01:53:26;;;;;;;7.75;2.85;;;;;;;-148.88;91.54;76126.59;5113658;28;20478;-84
2022/07/15 01:55:51;;;;;;;10.45;3.20;;;;;;;-148.88;91.83;76138.81;5126341;28;20517;-85
2022/07/15 01:58:17;;;;;;;8.45;2.90;;;;;;;-148.88;92.25;76134.72;5106734;28;20054;-85
2022/07/15 02:00:43;;;;;;;9.00;3.15;;;;;;;-148.88;92.12;76138.81;5123141;28;20072;-85
2022/07/15 02:03:08;;;;;;;10.95;3.10;;;;;;;-148.88;92.10;76140.84;5122840;28;20030;-85
2022/07/15 02:05:34;;;;;;;9.75;3.50;;;;;;;-148.88;91.97;76138.81;5102844;28;20031;-84
2022/07/15 02:08:00;;;;;;;7.80;2.90;;;;;;;-148.88;91.46;76134.72;5102047;28;20023;-84
2022/07/15 02:10:25;;;;;;;7.57;2.83;;;;;;;-148.88;91.73;76134.72;5121049;28;20043;-85
2022/07/15 02:12:50;;;;;;;12.23;3.15;;;;;;;-148.88;91.36;76142.88;5101466;28;20016;-84
2022/07/15 02:15:16;;;;;;;7.53;2.90;;;;;;;-148.88;91.77;76144.91;5099495;28;20049;-84
2022/07/15 02:17:41;;;;;;;9.05;2.97;;;;;;;-148.88;92.16;76151.00;5100191;28;20044;-84
2022/07/15 02:20:07;;;;;;;7.38;3.20;;;;;;;-148.88;92.40;76171.31;5101197;28;20054;-84
2022/07/15 02:22:32;;;;;;;6.00;3.33;;;;;;;-148.88;93.69;76189.59;5118764;28;20020;-85
2022/07/15 02:24:57;;;;;;;9.40;3.67;;;;;;;-148.88;94.95;76213.97;5117265;28;20027;-83
2022/07/15 02:27:23;;;;;;;7.68;3.10;;;;;;;-148.88;95.77;76216.00;5100144;28;20038;-84
2022/07/15 02:29:48;;;;;;;8.18;3.60;;;;;;;-148.88;95.94;76224.13;5102698;28;20028;-84
2022/07/15 02:32:13;;;;;;;10.85;3.63;;;;;;;-148.88;95.59;76220.06;5120883;28;20032;-85
2022/07/15 02:34:38;;;;;;;10.77;3.65;;;;;;;-148.88;94.94;76216.00;5120844;28;20047;-86
2022/07/15 02:37:04;;;;;;;9.75;3.42;;;;;;;-148.88;95.21;76211.94;5101036;28;20081;-84
2022/07/15 02:39:29;;;;;;;8.48;3.50;;;;;;;-148.88;94.46;76209.91;5100110;28;20026;-84
2022/07/15 02:41:54;;;;;;;12.07;4.18;;;;;;;-148.88;94.11;76203.81;5100689;28;20028;-84
2022/07/15 02:47:42;;;;;;;7.65;3.72;;;;;;;-148.88;96.40;76238.34;5117870;28;20068;-84
2022/07/15 02:50:07;;;;;;;11.98;4.53;;;;;;;-148.88;97.25;76236.31;5099548;28;20019;-84
2022/07/15 02:52:33;;;;;;;7.85;3.83;;;;;;;-148.88;97.44;76240.38;5098469;28;20011;-84
2022/07/15 02:54:58;;;;;;;10.25;4.63;;;;;;;-148.88;98.13;76240.38;5099207;28;20474;-84
2022/07/15 02:57:24;;;;;;;11.38;4.32;;;;;;;-148.88;98.43;76248.50;5102614;28;20027;-84
2022/07/15 02:59:49;;;;;;;9.15;4.20;;;;;;;-148.88;98.02;76248.50;5101677;28;20474;-84
2022/07/15 03:02:14;;;;;;;9.57;4.05;;;;;;;-148.88;97.18;76244.44;5100925;28;20030;-82
2022/07/15 03:04:40;;;;;;;8.18;4.47;;;;;;;-148.88;96.88;76244.44;5099770;28;20427;-84
2022/07/15 03:07:05;;;;;;;11.32;4.60;;;;;;;-148.88;96.42;76256.63;5116893;28;20048;-86
2022/07/15 03:09:30;;;;;;;9.23;4.20;;;;;;;-148.88;96.83;76252.56;5098694;28;20389;-84
2022/07/15 03:11:56;;;;;;;13.05;4.45;;;;;;;-148.88;96.67;76256.63;5098624;28;20020;-84
2022/07/15 03:14:21;;;;;;;7.97;4.28;;;;;;;-148.88;96.55;76258.66;5116673;28;20386;-83
2022/07/15 03:16:46;;;;;;;8.35;4.22;;;;;;;-148.88;96.11;76264.75;5098882;28;20058;-83
2022/07/15 03:19:11;;;;;;;11.40;4.22;;;;;;;-148.88;95.94;76272.88;5115723;28;20023;-84
2022/07/15 03:21:37;;;;;;;8.68;4.28;;;;;;;-148.88;95.64;76281.00;5096745;28;20045;-85
2022/07/15 03:24:03;;;;;;;7.20;3.70;;;;;;;-148.88;95.38;76289.13;5097466;28;20035;-80
2022/07/15 03:26:29;;;;;;;13.15;4.95;;;;;;;-148.88;95.30;76283.03;5098171;28;20079;-81
2022/07/15 03:28:54;;;;;;;7.30;4.07;;;;;;;-148.88;95.75;76287.09;5100350;28;20023;-83
2022/07/15 03:31:19;;;;;;;7.30;4.10;;;;;;;-148.88;95.78;76289.13;5115573;28;20027;-81
2022/07/15 03:33:45;;;;;;;9.68;4.70;;;;;;;-148.88;95.77;76289.13;5116285;28;20024;-85
2022/07/15 03:36:10;;;;;;;9.95;4.35;;;;;;;-148.88;95.82;76285.06;5099069;28;20051;-83
2022/07/15 03:38:35;;;;;;;8.98;4.05;;;;;;;-148.88;96.29;76297.25;5116027;28;20503;-83
2022/07/15 03:41:01;;;;;;;9.10;4.60;;;;;;;-148.88;96.74;76289.13;5098303;28;20061;-84
2022/07/15 03:43:29;;;;;;;11.98;4.78;;;;;;;-148.88;96.52;76301.31;5097655;28;20496;-85
2022/07/15 03:45:55;;;;;;;9.77;4.90;;;;;;;-148.88;96.71;76309.44;5097552;28;20028;-84
2022/07/15 03:48:21;;;;;;;8.20;3.90;;;;;;;-148.88;97.13;76299.28;5098049;28;20023;-84
2022/07/15 03:50:46;;;;;;;10.27;4.80;;;;;;;-148.88;97.20;76301.31;5097921;28;20058;-85
2022/07/15 03:53:12;;;;;;;14.00;5.28;;;;;;;-148.88;96.76;76315.53;5097612;28;20032;-85
2022/07/15 03:55:38;;;;;;;11.70;4.93;;;;;;;-148.88;97.10;76323.66;5115862;28;20374;-85
2022/07/15 03:58:04;;;;;;;11.90;5.00;;;;;;;-148.88;97.33;76319.59;5116575;28;20030;-85
2022/07/15 04:00:30;;;;;;;7.97;4.60;;;;;;;-148.88;97.00;76329.75;5116258;28;20020;-85
2022/07/15 04:02:55;;;;;;;13.80;5.05;;;;;;;-148.88;97.08;76335.84;5097346;28;20504;-85
2022/07/15 04:05:21;;;;;;;7.65;4.82;;;;;;;-148.88;97.03;76354.13;5098346;28;20035;-85
2022/07/15 04:07:46;;;;;;;9.02;4.70;;;;;;;-148.88;97.47;76343.97;5097807;28;20481;-84
2022/07/15 04:10:12;;;;;;;10.45;4.47;;;;;;;-148.88;97.32;76358.19;5115045;28;20026;-83
2022/07/15 04:12:37;;;;;;;10.00;4.22;;;;;;;-148.88;97.66;76366.31;5097318;28;20435;-84
2022/07/15 04:15:04;;;;;;;9.13;4.53;;;;;;;-148.88;98.43;76366.31;5115671;28;20366;-85
2022/07/15 04:17:29;;;;;;;10.38;5.28;;;;;;;-148.88;98.33;76366.31;5115779;28;20110;-84
2022/07/15 04:19:54;;;;;;;11.65;5.07;;;;;;;-148.88;98.54;76364.28;5115990;28;20486;-85
2022/07/15 04:22:20;;;;;;;10.05;5.10;;;;;;;-148.88;98.94;76362.25;5098620;28;20050;-86
2022/07/15 04:24:45;;;;;;;9.85;5.57;;;;;;;-148.88;99.57;76372.41;5115584;28;20027;-83
2022/07/15 04:27:11;;;;;;;11.90;5.75;;;;;;;-148.88;100.00;76374.44;5097197;28;20107;-83
2022/07/15 04:29:36;;;;;;;10.18;5.57;;;;;;;-148.88;100.00;76370.38;5115870;28;20054;-85
2022/07/15 04:32:02;;;;;;;10.40;5.10;;;;;;;-148.88;100.00;76354.13;5121801;28;20015;-84
2022/07/15 04:34:27;;;;;;;13.50;5.30;;;;;;;-148.88;100.00;76354.13;5101688;28;20377;-85
2022/07/15 04:36:53;;;;;;;14.00;5.85;;;;;;;-148.88;100.00;76354.13;5119065;28;20019;-86
2022/07/15 04:39:18;;;;;;;12.65;5.60;;;;;;;-148.88;100.00;76350.06;5119865;28;20081;-85
2022/07/15 04:41:43;;;;;;;9.18;4.32;;;;;;;-148.88;100.00;76343.97;5100722;28;20430;-82
2022/07/15 04:44:08;;;;;;;11.45;5.07;;;;;;;-148.88;100.00;76329.75;5118999;28;20020;-84
2022/07/15 04:46:34;;;;;;;12.00;5.35;;;;;;;-148.88;100.00;76325.69;5100014;28;20031;-83
2022/07/15 04:51:43;;;;;;;9.93;5.35;;;;;;;-148.88;100.00;76325.69;5118690;28;20401;-84
2022/07/15 04:54:08;;;;;;;13.25;5.78;;;;;;;-148.88;100.00;76321.63;5099932;28;20474;-82
2022/07/15 04:56:33;;;;;;;12.35;5.07;;;;;;;-148.88;100.00;76319.59;5099557;28;20111;-85
2022/07/15 04:58:59;;;;;;;11.63;5.72;;;;;;;-148.88;100.00;76323.66;5100022;28;20028;-84
2022/07/15 05:01:24;;;;;;;11.52;5.22;;;;;;;-148.88;100.00;76309.44;5100727;28;20534;-83
2022/07/15 05:03:49;;;;;;;9.93;4.95;;;;;;;-148.88;100.00;76287.09;5120445;28;20032;-84
2022/07/15 05:06:14;;;;;;;11.05;5.53;;;;;;;-148.88;100.00;76299.28;5103653;28;20039;-84
2022/07/15 05:08:40;;;;;;;10.10;5.18;;;;;;;-148.88;100.00;76297.25;5120002;28;20019;-85
2022/07/15 05:11:05;;;;;;;11.95;4.78;;;;;;;-148.88;100.00;76303.34;5119500;22;20043;-84
2022/07/15 05:13:31;;;;;;;12.05;5.57;;;;;;;-148.88;100.00;76285.06;5100011;28;20030;-85
2022/07/15 05:15:57;;;;;;;8.95;4.50;;;;;;;-148.88;99.91;76274.91;5099810;28;20485;-84
2022/07/15 05:18:22;;;;;;;12.43;5.07;;;;;;;-148.88;99.50;76266.78;5099638;28;20024;-85
2022/07/15 05:20:48;;;;;;;11.00;4.32;;;;;;;-148.88;99.42;76264.75;5098338;28;20055;-87
2022/07/15 05:23:16;;;;;;;9.35;4.50;;;;;;;-148.88;99.04;76256.63;5098060;28;20023;-87
2022/07/15 05:25:42;;;;;;;10.77;4.50;;;;;;;-148.88;98.48;76258.66;5098299;28;20023;-86
2022/07/15 05:28:07;;;;;;;12.30;4.70;;;;;;;-148.88;98.84;76250.53;5097888;28;20382;-87
2022/07/15 05:30:35;;;;;;;14.27;4.60;;;;;;;-148.88;98.57;76244.44;5097838;28;20040;-86
2022/07/15 05:33:00;;;;;;;12.02;4.65;;;;;;;-148.88;98.68;76236.31;5097979;28;20015;-87
2022/07/15 05:35:25;;;;;;;11.65;3.90;;;;;;;-148.88;97.25;76232.25;5097848;28;20496;-87
2022/07/15 05:37:54;;;;;;;13.75;4.10;;;;;;;-148.88;96.63;76224.13;5097864;28;20023;-87
2022/07/15 05:40:19;;;;;;;9.20;3.83;;;;;;;-148.88;96.45;76211.94;5097784;28;20016;-87
2022/07/15 05:42:44;;;;;;;10.23;3.38;;;;;;;-148.88;96.23;76197.72;5097321;28;20077;-90
2022/07/15 05:45:10;;;;;;;11.70;3.90;;;;;;;-148.88;95.59;76197.72;5098299;28;20031;-89
2022/07/15 05:47:35;;;;;;;11.45;3.83;;;;;;;-148.88;95.41;76191.63;5115829;28;20024;-89
2022/07/15 05:53:23;;;;;;;9.00;3.35;;;;;;;-148.88;93.98;76151.00;5116109;28;20032;-88
2022/07/15 05:55:48;;;;;;;10.05;3.35;;;;;;;-148.88;92.82;76144.91;5098106;28;20027;-89
2022/07/15 05:58:14;;;;;;;9.63;3.83;;;;;;;-148.88;92.41;76151.00;5116131;28;20492;-88
2022/07/15 06:00:39;;;;;;;9.30;3.35;;;;;;;-148.88;92.33;76130.69;5097585;28;20092;-88
2022/07/15 06:03:05;;;;;;;8.55;2.80;;;;;;;-148.88;91.63;76130.69;5116034;28;20028;-89
2022/07/15 06:05:33;;;;;;;8.73;3.17;;;;;;;-148.88;90.58;76102.22;5115687;28;20065;-89
2022/07/15 06:11:20;;;;;;;10.68;3.30;;;;;;;-148.88;90.63;76096.13;5115317;28;20038;-89
2022/07/15 06:13:45;;;;;;;8.93;2.63;;;;;;;-148.88;90.27;76083.94;5115350;28;20019;-89
2022/07/15 06:16:11;;;;;;;10.07;2.85;;;;;;;-148.88;88.75;76065.66;5097483;28;20073;-86
2022/07/15 06:18:37;;;;;;;10.38;2.97;;;;;;;-148.88;89.14;76061.59;5097277;28;20028;-89
2022/07/15 06:21:02;;;;;;;8.55;2.70;;;;;;;-148.88;89.27;76045.34;5096750;28;20058;-90
2022/07/15 06:23:27;;;;;;;9.85;2.90;;;;;;;-148.88;88.18;76051.44;5097347;28;20050;-90
2022/07/15 06:25:55;;;;;;;9.23;2.28;;;;;;;-148.88;87.36;76035.19;5096919;28;20035;-88
2022/07/15 06:28:21;;;;;;;9.95;2.22;;;;;;;-148.88;86.94;76033.16;5115529;28;20424;-89
2022/07/15 06:30:46;;;;;;;9.25;2.60;;;;;;;-148.88;86.73;76025.03;5115393;28;20027;-90
2022/07/15 06:33:11;;;;;;;10.10;2.40;;;;;;;-148.88;85.27;76016.91;5099630;28;20385;-85
2022/07/15 06:35:37;;;;;;;11.25;2.65;;;;;;;-148.88;85.39;76008.78;5097459;28;20026;-87
2022/07/15 06:38:02;;;;;;;10.68;2.33;;;;;;;-148.88;84.83;75992.53;5115455;28;20030;-87
2022/07/15 06:40:27;;;;;;;8.95;2.13;;;;;;;-148.88;85.03;75986.44;5115284;28;20030;-87
2022/07/15 06:42:53;;;;;;;7.68;1.98;;;;;;;-148.88;83.48;75980.34;5115349;28;20023;-86
2022/07/15 06:45:18;;;;;;;7.72;1.75;;;;;;;-148.88;83.16;75968.16;5098038;28;20034;-86
2022/07/15 06:47:46;;;;;;;10.35;2.50;;;;;;;-148.88;83.43;75974.25;5115218;28;20027;-87
2022/07/15 06:50:12;;;;;;;8.65;1.85;;;;;;;-148.88;82.85;75960.03;5115373;28;20099;-86
2022/07/15 06:52:37;;;;;;;9.55;2.17;;;;;;;-148.88;81.85;75947.84;5114477;28;20043;-85
2022/07/15 06:55:04;;;;;;;9.52;2.45;;;;;;;-148.88;80.95;75958.00;5096616;28;20023;-86
2022/07/15 06:57:29;;;;;;;7.53;2.03;;;;;;;-148.88;81.90;75951.91;5096881;28;20118;-87
2022/07/15 06:59:56;;;;;;;9.35;1.98;;;;;;;-148.88;79.28;75943.78;5114449;28;20080;-85
2022/07/15 07:02:22;;;;;;;7.43;1.80;;;;;;;-148.88;77.73;75931.59;5096200;28;20023;-86
2022/07/15 07:04:47;;;;;;;8.18;2.10;;;;;;;-148.88;78.64;75931.59;5114997;28;20073;-87
2022/07/15 07:07:13;;;;;;;6.47;1.58;;;;;;;-148.88;80.01;75915.34;5096664;28;20027;-86
2022/07/15 07:09:38;;;;;;;5.28;1.90;;;;;;;-148.88;77.69;75899.09;5096811;28;20058;-86
2022/07/15 07:12:04;;;;;;;7.85;1.63;;;;;;;-148.88;76.72;75921.44;5096795;28;20055;-88
2022/07/15 07:14:29;;;;;;;9.85;1.80;;;;;;;-148.88;78.87;75897.06;5096266;28;20104;-87
2022/07/15 07:16:56;;;;;;;7.78;1.77;;;;;;;-148.88;75.92;75874.72;5114374;28;20027;-86
2022/07/15 07:19:21;;;;;;;4.57;1.35;;;;;;;-148.88;75.25;75852.38;5096342;28;20031;-88
2022/07/15 07:21:47;;;;;;;5.93;1.60;;;;;;;-148.88;74.18;75848.31;5113966;28;20023;-88
2022/07/15 07:24:12;;;;;;;6.90;1.65;;;;;;;-148.88;73.38;75854.41;5114279;28;20514;-86
2022/07/15 07:26:37;;;;;;;9.77;1.75;;;;;;;-148.88;72.38;75858.47;5114176;28;20065;-86
2022/07/15 07:29:03;;;;;;;5.45;1.38;;;;;;;-148.88;69.76;75858.47;5096147;28;20590;-86
2022/07/15 07:31:28;;;;;;;5.13;1.00;;;;;;;-148.88;67.61;75866.59;5114482;28;20012;-87
2022/07/15 07:33:55;;;;;;;6.32;1.00;;;;;;;-148.88;67.27;75862.53;5095824;28;20550;-84
2022/07/15 07:36:21;;;;;;;4.45;0.80;;;;;;;-148.88;68.38;75878.78;5113952;28;20033;-88
2022/07/15 07:38:46;;;;;;;7.13;1.15;;;;;;;-148.88;65.88;75850.34;5114336;28;20024;-90
2022/07/15 07:41:11;;;;;;;4.10;0.90;;;;;;;-148.88;66.01;75809.72;5095913;28;20517;-88
2022/07/15 07:43:39;;;;;;;4.68;0.90;;;;;;;-148.88;64.04;75787.38;5113891;28;20118;-89
2022/07/15 07:46:05;;;;;;;3.63;0.95;;;;;;;-148.88;62.61;75769.09;5113927;28;20028;-90
2022/07/15 07:48:30;;;;;;;5.75;1.00;;;;;;;-148.88;62.59;75789.41;5095719;28;20371;-88
2022/07/15 07:50:57;;;;;;;6.00;1.05;;;;;;;-148.88;61.21;75795.50;5113616;28;20027;-88
2022/07/15 07:53:22;;;;;;;4.63;0.70;;;;;;;-148.88;63.13;75801.59;5095713;28;20019;-89
2022/07/15 07:55:48;;;;;;;6.95;0.82;;;;;;;-148.88;61.87;75809.72;5113849;28;20073;-89
2022/07/15 07:58:15;;;;;;;6.28;1.00;;;;;;;-148.88;60.93;75846.28;5095579;28;20051;-89
2022/07/15 08:00:41;;;;;;;7.30;0.80;;;;;;;-148.88;60.38;75838.16;5095614;28;20473;-88
2022/07/15 08:03:06;;;;;;;3.95;0.90;;;;;;;-148.88;60.69;75807.69;5095473;28;20073;-88
2022/07/15 08:05:32;;;;;;;4.25;1.00;;;;;;;-148.88;58.89;75779.25;5117258;28;20027;-88
2022/07/15 08:08:12;;;;;;;5.40;0.90;;;;;;;-148.88;59.15;75752.84;5118086;28;20578;-86
2022/07/15 08:10:39;;;;;;;5.05;1.02;;;;;;;-148.88;58.61;75765.03;5099638;28;20031;-88
2022/07/15 08:13:05;;;;;;;3.67;0.88;;;;;;;-148.88;60.48;75767.06;5100265;28;20479;-86
2022/07/15 08:15:30;;;;;;;4.32;0.85;;;;;;;-148.88;61.23;75769.09;5099745;28;20015;-88
2022/07/15 08:17:56;;;;;;;3.97;0.98;;;;;;;-148.88;61.03;75769.09;5099685;28;20437;-87
2022/07/15 08:20:21;;;;;;;3.38;0.93;;;;;;;-148.88;58.50;75752.84;5099406;28;20081;-87
2022/07/15 08:22:46;;;;;;;3.80;0.82;;;;;;;-148.88;57.95;75740.66;5117479;28;20462;-87
2022/07/15 08:25:12;;;;;;;3.40;0.80;;;;;;;-148.88;57.41;75736.59;5117780;28;20038;-86
2022/07/15 08:27:37;;;;;;;4.53;0.88;;;;;;;-148.88;55.90;75716.28;5099674;28;20031;-87
2022/07/15 08:30:03;;;;;;;3.88;1.25;;;;;;;-148.88;55.69;75716.28;5099867;28;20111;-84
2022/07/15 08:32:28;;;;;;;4.90;1.00;;;;;;;-148.88;55.22;75724.41;5099400;28;20015;-85
2022/07/15 08:34:53;;;;;;;2.10;0.77;;;;;;;-148.88;56.93;75708.16;5099874;28;20110;-85
2022/07/15 08:37:19;;;;;;;2.97;0.73;;;;;;;-148.88;56.42;75712.22;5099936;28;20028;-83
2022/07/15 08:39:44;;;;;;;4.43;0.55;;;;;;;-148.88;55.49;75706.13;5099802;28;20023;-84
2022/07/15 08:42:09;;;;;;;4.28;0.75;;;;;;;-148.88;54.50;75700.03;5099238;28;20028;-85
2022/07/15 08:44:35;;;;;;;3.85;0.90;;;;;;;-148.88;54.80;75724.41;5099372;28;20019;-85
2022/07/15 08:47:05;;;;;;;1.63;0.60;;;;;;;-148.88;55.79;75722.38;5098969;28;20039;-84
2022/07/15 08:49:32;;;;;;;2.28;0.60;;;;;;;-148.88;56.11;75718.31;5098611;28;20027;-86
2022/07/15 08:52:01;;;;;;;2.88;0.90;;;;;;;-148.88;57.36;75695.97;5098941;28;20015;-83
2022/07/15 08:54:28;;;;;;;2.80;0.70;;;;;;;-148.88;56.81;75708.16;5099415;28;20419;-87
2022/07/15 08:56:54;;;;;;;3.55;0.95;;;;;;;-148.88;56.59;75695.97;5098590;28;20055;-87
2022/07/15 08:59:19;;;;;;;4.53;0.95;;;;;;;-148.88;56.32;75710.19;5098841;28;20114;-86
2022/07/15 09:01:46;;;;;;;4.80;1.17;;;;;;;-148.88;57.14;75710.19;5098786;28;20044;-88
2022/07/15 09:04:13;;;;;;;4.50;0.77;;;;;;;-148.88;56.54;75720.34;5098723;28;20024;-86
2022/07/15 09:06:48;;;;;;;3.83;0.90;;;;;;;-148.88;57.45;75702.06;5098745;28;20623;-86
2022/07/15 09:09:25;;;;;;;4.65;1.00;;;;;;;-148.88;58.34;75687.84;5099190;28;20027;-86
2022/07/15 09:11:59;;;;;;;6.55;1.00;;;;;;;-148.88;58.09;75657.38;5098311;28;20016;-88
2022/07/15 09:14:28;;;;;;;3.17;0.80;;;;;;;-148.88;56.85;75647.22;5098640;28;20020;-87
2022/07/15 09:17:08;;;;;;;5.75;0.80;;;;;;;-148.88;56.74;75651.28;5097683;28;20086;-84
2022/07/15 09:19:56;;;;;;;3.83;0.85;;;;;;;-148.88;56.53;75667.53;5098307;28;20019;-86
2022/07/15 09:22:21;;;;;;;3.22;0.90;;;;;;;-148.88;58.87;75708.16;5098065;28;20504;-86
2022/07/15 09:24:50;;;;;;;3.50;1.08;;;;;;;-148.88;59.93;75712.22;5116604;28;20023;-84
2022/07/15 09:27:31;;;;;;;4.32;1.10;;;;;;;-148.88;58.89;75702.06;5098112;28;20118;-84
2022/07/15 09:36:04;;;;;;;3.83;0.90;;;;;;;-148.88;55.00;75626.91;5116651;28;20070;-85
2022/07/15 09:38:40;;;;;;;3.55;0.70;;;;;;;-148.88;54.78;75561.94;5098092;28;20064;-87
2022/07/15 09:41:05;;;;;;;4.28;0.85;;;;;;;-148.88;55.04;75549.75;5098052;28;20098;-88
2022/07/15 09:43:42;;;;;;;4.07;0.70;;;;;;;-148.88;53.43;75490.84;5116815;28;20430;-85
2022/07/15 09:46:07;;;;;;;4.85;0.60;;;;;;;-148.88;52.65;75549.75;5098082;28;20389;-87
2022/07/15 09:48:39;;;;;;;4.22;0.95;;;;;;;-148.88;53.67;75535.53;5093214;28;20024;-84
2022/07/15 09:51:04;;;;;;;2.22;0.70;;;;;;;-148.88;54.25;75541.63;5115529;28;20024;-84
2022/07/15 09:53:32;;;;;;;3.60;0.60;;;;;;;-148.88;53.26;75525.38;5114114;28;20015;-83
2022/07/15 09:55:58;;;;;;;3.75;0.60;;;;;;;-148.88;50.67;75456.31;5077223;28;20032;-84
2022/07/15 09:58:25;;;;;;;5.82;0.60;;;;;;;-148.88;49.45;75395.38;5095429;28;20023;-85
2022/07/15 10:00:52;;;;;;;1.73;0.50;;;;;;;-148.88;49.60;75342.56;5095239;28;20482;-83
2022/07/15 10:03:19;;;;;;;2.75;0.35;;;;;;;-148.88;45.90;75379.13;5077408;28;20024;-83
2022/07/15 10:05:46;;;;;;;2.00;0.40;;;;;;;-148.88;47.03;75440.06;5095096;28;20028;-83
2022/07/15 10:08:15;;;;;;;1.50;0.57;;;;;;;-148.88;47.96;75513.19;5076957;28;20069;-84
2022/07/15 10:10:40;;;;;;;1.50;0.50;;;;;;;-148.88;48.40;75547.72;5095016;28;20024;-84
2022/07/15 10:13:39;;;;;;;1.98;0.60;;;;;;;-148.88;49.94;75580.22;5077188;28;20016;-86
2022/07/15 10:16:29;;;;;;;1.73;0.60;;;;;;;-148.88;50.62;75596.44;5077221;28;20474;-86
2022/07/15 10:19:05;;;;;;;2.05;0.50;;;;;;;-148.88;49.42;75574.13;5095239;28;20463;-86
2022/07/15 10:21:46;;;;;;;2.65;0.70;;;;;;;-148.88;50.07;75618.78;5077822;28;20030;-86
2022/07/15 10:24:17;;;;;;;2.70;0.63;;;;;;;-148.88;51.73;75598.47;5077733;28;20020;-85
2022/07/15 10:27:02;;;;;;;3.45;0.50;;;;;;;-148.88;52.39;75555.84;5094682;28;20051;-88
2022/07/15 10:29:30;;;;;;;2.20;0.50;;;;;;;-148.88;51.83;75531.47;5076346;28;20028;-87
2022/07/15 10:31:57;;;;;;;3.60;1.05;;;;;;;-148.88;50.69;75503.03;5076841;28;20082;-88
2022/07/15 10:34:23;;;;;;;4.13;0.75;;;;;;;-148.88;49.14;75456.31;5076605;28;20114;-86
2022/07/15 10:40:10;;;;;;;3.60;0.80;;;;;;;-148.88;48.50;75464.44;5095024;28;20154;-86
2022/07/15 10:42:58;;;;;;;2.15;0.70;;;;;;;-148.88;48.69;75496.94;5076423;28;20123;-85
2022/07/15 10:45:23;;;;;;;2.85;0.80;;;;;;;-148.88;48.94;75494.91;5076254;28;20024;-85
2022/07/15 10:48:25;;;;;;;2.58;0.80;;;;;;;-148.88;49.74;75482.72;5076198;28;20020;-85
2022/07/15 10:50:50;;;;;;;2.13;0.50;;;;;;;-148.88;47.99;75480.69;5076177;28;20024;-85
2022/07/15 10:53:18;;;;;;;1.55;0.55;;;;;;;-148.88;49.80;75490.84;5076891;28;20077;-85
2022/07/15 10:55:44;;;;;;;2.80;0.68;;;;;;;-148.88;49.14;75484.75;5076215;28;20394;-85
2022/07/15 10:58:12;;;;;;;3.13;0.60;;;;;;;-148.88;48.54;75521.31;5075989;28;20539;-86
2022/07/15 11:00:37;;;;;;;3.40;0.70;;;;;;;-148.88;49.89;75541.63;5075994;28;20394;-85
2022/07/15 11:03:08;;;;;;;3.28;0.73;;;;;;;-148.88;50.18;75549.75;5075940;28;20020;-86
2022/07/15 11:05:40;;;;;;;3.15;0.60;;;;;;;-148.88;49.44;75537.56;5075834;28;20061;-84
2022/07/15 11:08:33;;;;;;;3.63;0.80;;;;;;;-148.88;50.26;75529.44;5075727;28;20478;-85
2022/07/15 11:11:16;;;;;;;3.15;0.50;;;;;;;-148.88;50.77;75511.16;5112492;22;20088;-78
2022/07/15 11:13:47;;;;;;;3.70;0.60;;;;;;;-148.88;51.04;75492.88;5114513;28;20032;-78
2022/07/15 11:16:14;;;;;;;1.85;0.52;;;;;;;-148.88;52.19;75498.97;5114764;28;20047;-80
2022/07/15 11:18:52;;;;;;;2.78;0.50;;;;;;;-148.88;50.76;75492.88;5114497;28;20085;-78
2022/07/15 11:21:19;;;;;;;2.70;0.55;;;;;;;-148.88;51.96;75492.88;5096271;28;20035;-78
2022/07/15 11:23:46;;;;;;;1.52;0.55;;;;;;;-148.88;50.36;75488.81;5114657;28;20023;-78
2022/07/15 11:26:12;;;;;;;4.03;0.68;;;;;;;-148.88;48.37;75476.63;5114654;28;20512;-78
2022/07/15 11:28:38;;;;;;;3.22;0.70;;;;;;;-148.88;49.60;75456.31;5114589;28;20023;-78
2022/07/15 11:31:03;;;;;;;3.83;0.77;;;;;;;-148.88;49.67;75466.47;5115698;28;20030;-78
2022/07/15 11:33:30;;;;;;;3.42;0.55;;;;;;;-148.88;48.99;75466.47;5115459;28;20030;-78
2022/07/15 11:36:00;;;;;;;2.85;0.68;;;;;;;-148.88;49.52;75427.88;5114887;28;20026;-78
2022/07/15 11:38:28;;;;;;;2.10;0.60;;;;;;;-148.88;49.05;75448.19;5095781;28;20015;-77